sensor_id;sensor_type;location;lat;lon;timestamp;P1;durP1;ratioP1;P2;durP2;ratioP2
25231;SDS011;13176;51.140;6.290;2023-05-27T00:00:29;21.67;;;19.67;;
25231;SDS011;13176;51.140;6.290;2023-05-27T00:02:58;20.83;;;18.95;;
25231;SDS011;13176;51.140;6.290;2023-05-27T00:05:26;20.58;;;18.42;;
25231;SDS011;13176;51.140;6.290;2023-05-27T00:07:53;23.30;;;21.13;;
25231;SDS011;13176;51.140;6.290;2023-05-27T00:10:19;21.40;;;19.13;;
25231;SDS011;13176;51.140;6.290;2023-05-27T00:12:46;21.70;;;19.48;;
25231;SDS011;13176;51.140;6.290;2023-05-27T00:15:13;22.20;;;19.85;;
25231;SDS011;13176;51.140;6.290;2023-05-27T00:17:39;19.83;;;17.00;;
25231;SDS011;13176;51.140;6.290;2023-05-27T00:20:06;19.85;;;17.80;;
25231;SDS011;13176;51.140;6.290;2023-05-27T00:22:34;19.92;;;17.70;;
25231;SDS011;13176;51.140;6.290;2023-05-27T00:25:02;21.13;;;18.10;;
25231;SDS011;13176;51.140;6.290;2023-05-27T00:27:29;21.40;;;19.00;;
25231;SDS011;13176;51.140;6.290;2023-05-27T00:29:56;22.10;;;19.70;;
25231;SDS011;13176;51.140;6.290;2023-05-27T00:32:22;21.40;;;19.30;;
25231;SDS011;13176;51.140;6.290;2023-05-27T00:34:49;24.20;;;19.13;;
25231;SDS011;13176;51.140;6.290;2023-05-27T00:37:16;22.05;;;19.33;;
25231;SDS011;13176;51.140;6.290;2023-05-27T00:39:42;21.70;;;19.55;;
25231;SDS011;13176;51.140;6.290;2023-05-27T00:42:08;28.17;;;17.60;;
25231;SDS011;13176;51.140;6.290;2023-05-27T00:44:36;19.88;;;17.95;;
25231;SDS011;13176;51.140;6.290;2023-05-27T00:47:03;24.17;;;21.83;;
25231;SDS011;13176;51.140;6.290;2023-05-27T00:49:29;20.25;;;18.20;;
25231;SDS011;13176;51.140;6.290;2023-05-27T00:51:56;20.42;;;17.38;;
25231;SDS011;13176;51.140;6.290;2023-05-27T00:54:22;18.10;;;16.15;;
25231;SDS011;13176;51.140;6.290;2023-05-27T00:56:49;17.20;;;15.43;;
25231;SDS011;13176;51.140;6.290;2023-05-27T00:59:16;19.20;;;17.50;;
25231;SDS011;13176;51.140;6.290;2023-05-27T01:01:43;20.48;;;16.80;;
25231;SDS011;13176;51.140;6.290;2023-05-27T01:04:10;20.38;;;18.13;;
25231;SDS011;13176;51.140;6.290;2023-05-27T01:06:42;21.00;;;18.02;;
25231;SDS011;13176;51.140;6.290;2023-05-27T01:14:43;20.00;;;18.02;;
25231;SDS011;13176;51.140;6.290;2023-05-27T01:17:11;21.80;;;18.65;;
25231;SDS011;13176;51.140;6.290;2023-05-27T01:19:41;23.88;;;21.13;;
25231;SDS011;13176;51.140;6.290;2023-05-27T01:22:11;25.48;;;23.38;;
25231;SDS011;13176;51.140;6.290;2023-05-27T01:24:39;22.98;;;20.73;;
25231;SDS011;13176;51.140;6.290;2023-05-27T01:27:09;24.42;;;22.23;;
25231;SDS011;13176;51.140;6.290;2023-05-27T01:29:41;24.55;;;22.25;;
25231;SDS011;13176;51.140;6.290;2023-05-27T01:32:18;28.00;;;25.25;;
25231;SDS011;13176;51.140;6.290;2023-05-27T01:34:57;28.52;;;23.65;;
25231;SDS011;13176;51.140;6.290;2023-05-27T01:37:29;31.17;;;28.13;;
25231;SDS011;13176;51.140;6.290;2023-05-27T01:39:59;27.42;;;25.30;;
25231;SDS011;13176;51.140;6.290;2023-05-27T01:42:27;24.88;;;22.35;;
25231;SDS011;13176;51.140;6.290;2023-05-27T01:44:54;29.73;;;26.73;;
25231;SDS011;13176;51.140;6.290;2023-05-27T01:47:22;25.65;;;23.45;;
25231;SDS011;13176;51.140;6.290;2023-05-27T01:49:49;28.33;;;25.52;;
25231;SDS011;13176;51.140;6.290;2023-05-27T01:52:15;26.90;;;24.55;;
25231;SDS011;13176;51.140;6.290;2023-05-27T01:54:42;23.55;;;21.20;;
25231;SDS011;13176;51.140;6.290;2023-05-27T01:57:08;23.50;;;21.13;;
25231;SDS011;13176;51.140;6.290;2023-05-27T01:59:35;21.95;;;19.60;;
25231;SDS011;13176;51.140;6.290;2023-05-27T02:02:01;24.85;;;22.30;;
25231;SDS011;13176;51.140;6.290;2023-05-27T02:04:28;24.00;;;21.30;;
25231;SDS011;13176;51.140;6.290;2023-05-27T02:06:54;25.63;;;23.02;;
25231;SDS011;13176;51.140;6.290;2023-05-27T02:09:21;25.92;;;23.50;;
25231;SDS011;13176;51.140;6.290;2023-05-27T02:11:47;22.90;;;20.65;;
25231;SDS011;13176;51.140;6.290;2023-05-27T02:14:14;24.55;;;22.50;;
25231;SDS011;13176;51.140;6.290;2023-05-27T02:16:40;25.25;;;22.80;;
25231;SDS011;13176;51.140;6.290;2023-05-27T02:19:07;24.63;;;22.13;;
25231;SDS011;13176;51.140;6.290;2023-05-27T02:21:34;24.83;;;22.45;;
25231;SDS011;13176;51.140;6.290;2023-05-27T02:24:02;24.20;;;21.83;;
25231;SDS011;13176;51.140;6.290;2023-05-27T02:26:28;23.88;;;21.50;;
25231;SDS011;13176;51.140;6.290;2023-05-27T02:28:55;24.20;;;21.95;;
25231;SDS011;13176;51.140;6.290;2023-05-27T02:31:21;26.80;;;20.02;;
25231;SDS011;13176;51.140;6.290;2023-05-27T02:33:48;20.63;;;18.73;;
25231;SDS011;13176;51.140;6.290;2023-05-27T02:36:14;22.27;;;20.27;;
25231;SDS011;13176;51.140;6.290;2023-05-27T02:38:41;23.30;;;20.83;;
25231;SDS011;13176;51.140;6.290;2023-05-27T02:41:07;22.60;;;20.40;;
25231;SDS011;13176;51.140;6.290;2023-05-27T02:43:33;22.25;;;18.83;;
25231;SDS011;13176;51.140;6.290;2023-05-27T02:46:00;24.00;;;17.83;;
25231;SDS011;13176;51.140;6.290;2023-05-27T02:48:26;21.77;;;18.58;;
25231;SDS011;13176;51.140;6.290;2023-05-27T02:50:53;23.02;;;18.95;;
25231;SDS011;13176;51.140;6.290;2023-05-27T02:53:19;19.63;;;17.42;;
25231;SDS011;13176;51.140;6.290;2023-05-27T02:55:46;21.35;;;17.58;;
25231;SDS011;13176;51.140;6.290;2023-05-27T02:58:12;21.30;;;18.58;;
25231;SDS011;13176;51.140;6.290;2023-05-27T03:00:42;24.27;;;17.80;;
25231;SDS011;13176;51.140;6.290;2023-05-27T03:03:09;20.52;;;18.58;;
25231;SDS011;13176;51.140;6.290;2023-05-27T03:05:35;22.50;;;18.50;;
25231;SDS011;13176;51.140;6.290;2023-05-27T03:08:02;21.90;;;17.42;;
25231;SDS011;13176;51.140;6.290;2023-05-27T03:10:32;20.85;;;18.33;;
25231;SDS011;13176;51.140;6.290;2023-05-27T03:12:59;19.80;;;16.48;;
25231;SDS011;13176;51.140;6.290;2023-05-27T03:15:25;19.92;;;17.60;;
25231;SDS011;13176;51.140;6.290;2023-05-27T03:17:56;21.33;;;19.00;;
25231;SDS011;13176;51.140;6.290;2023-05-27T03:20:23;20.25;;;18.25;;
25231;SDS011;13176;51.140;6.290;2023-05-27T03:22:50;23.25;;;17.55;;
25231;SDS011;13176;51.140;6.290;2023-05-27T03:25:17;21.23;;;19.35;;
25231;SDS011;13176;51.140;6.290;2023-05-27T03:27:43;20.85;;;16.88;;
25231;SDS011;13176;51.140;6.290;2023-05-27T03:30:10;18.75;;;16.35;;
25231;SDS011;13176;51.140;6.290;2023-05-27T03:32:37;22.58;;;18.88;;
25231;SDS011;13176;51.140;6.290;2023-05-27T03:35:03;21.95;;;18.70;;
25231;SDS011;13176;51.140;6.290;2023-05-27T03:37:30;23.98;;;17.48;;
25231;SDS011;13176;51.140;6.290;2023-05-27T03:39:57;21.83;;;19.50;;
25231;SDS011;13176;51.140;6.290;2023-05-27T03:42:24;22.60;;;20.25;;
25231;SDS011;13176;51.140;6.290;2023-05-27T03:44:50;23.73;;;21.13;;
25231;SDS011;13176;51.140;6.290;2023-05-27T03:47:17;25.50;;;21.40;;
25231;SDS011;13176;51.140;6.290;2023-05-27T03:49:47;25.50;;;22.70;;
25231;SDS011;13176;51.140;6.290;2023-05-27T03:52:14;26.10;;;23.98;;
25231;SDS011;13176;51.140;6.290;2023-05-27T03:54:41;31.13;;;28.40;;
25231;SDS011;13176;51.140;6.290;2023-05-27T03:57:08;29.90;;;26.92;;
25231;SDS011;13176;51.140;6.290;2023-05-27T03:59:35;29.15;;;27.02;;
25231;SDS011;13176;51.140;6.290;2023-05-27T04:02:02;29.55;;;26.67;;
25231;SDS011;13176;51.140;6.290;2023-05-27T04:04:28;29.98;;;27.05;;
25231;SDS011;13176;51.140;6.290;2023-05-27T04:06:55;26.40;;;23.88;;
25231;SDS011;13176;51.140;6.290;2023-05-27T04:09:21;29.75;;;27.13;;
25231;SDS011;13176;51.140;6.290;2023-05-27T04:11:48;28.75;;;26.38;;
25231;SDS011;13176;51.140;6.290;2023-05-27T04:14:15;31.35;;;28.40;;
25231;SDS011;13176;51.140;6.290;2023-05-27T04:16:41;27.17;;;24.73;;
25231;SDS011;13176;51.140;6.290;2023-05-27T04:19:08;30.20;;;27.63;;
25231;SDS011;13176;51.140;6.290;2023-05-27T04:21:34;26.45;;;24.02;;
25231;SDS011;13176;51.140;6.290;2023-05-27T04:24:04;34.38;;;31.48;;
25231;SDS011;13176;51.140;6.290;2023-05-27T04:26:31;26.33;;;23.88;;
25231;SDS011;13176;51.140;6.290;2023-05-27T04:28:59;25.63;;;23.35;;
25231;SDS011;13176;51.140;6.290;2023-05-27T04:31:28;28.27;;;25.52;;
25231;SDS011;13176;51.140;6.290;2023-05-27T04:33:57;37.67;;;34.67;;
25231;SDS011;13176;51.140;6.290;2023-05-27T04:36:24;29.25;;;26.90;;
25231;SDS011;13176;51.140;6.290;2023-05-27T04:38:53;30.40;;;27.95;;
25231;SDS011;13176;51.140;6.290;2023-05-27T04:41:20;39.33;;;35.95;;
25231;SDS011;13176;51.140;6.290;2023-05-27T04:43:47;29.20;;;26.42;;
25231;SDS011;13176;51.140;6.290;2023-05-27T04:46:14;28.13;;;25.63;;
25231;SDS011;13176;51.140;6.290;2023-05-27T04:48:40;28.38;;;25.80;;
25231;SDS011;13176;51.140;6.290;2023-05-27T04:51:07;34.20;;;30.75;;
25231;SDS011;13176;51.140;6.290;2023-05-27T04:53:33;29.65;;;26.80;;
25231;SDS011;13176;51.140;6.290;2023-05-27T04:56:00;32.28;;;29.15;;
25231;SDS011;13176;51.140;6.290;2023-05-27T04:58:27;28.50;;;25.90;;
25231;SDS011;13176;51.140;6.290;2023-05-27T05:00:54;30.30;;;27.27;;
25231;SDS011;13176;51.140;6.290;2023-05-27T05:03:23;30.27;;;27.95;;
25231;SDS011;13176;51.140;6.290;2023-05-27T05:06:03;29.50;;;26.40;;
25231;SDS011;13176;51.140;6.290;2023-05-27T05:08:30;33.05;;;29.80;;
25231;SDS011;13176;51.140;6.290;2023-05-27T05:10:57;33.85;;;31.15;;
25231;SDS011;13176;51.140;6.290;2023-05-27T05:13:23;36.75;;;33.65;;
25231;SDS011;13176;51.140;6.290;2023-05-27T05:15:55;34.78;;;31.65;;
25231;SDS011;13176;51.140;6.290;2023-05-27T05:18:22;41.38;;;38.25;;
25231;SDS011;13176;51.140;6.290;2023-05-27T05:20:49;47.42;;;43.83;;
25231;SDS011;13176;51.140;6.290;2023-05-27T05:23:16;59.55;;;55.47;;
25231;SDS011;13176;51.140;6.290;2023-05-27T05:25:47;28.83;;;26.08;;
25231;SDS011;13176;51.140;6.290;2023-05-27T05:28:20;29.83;;;27.27;;
25231;SDS011;13176;51.140;6.290;2023-05-27T05:30:47;32.65;;;30.15;;
25231;SDS011;13176;51.140;6.290;2023-05-27T05:33:14;33.13;;;30.30;;
25231;SDS011;13176;51.140;6.290;2023-05-27T05:35:41;32.55;;;30.02;;
25231;SDS011;13176;51.140;6.290;2023-05-27T05:38:07;32.28;;;29.27;;
25231;SDS011;13176;51.140;6.290;2023-05-27T05:40:34;39.75;;;36.60;;
25231;SDS011;13176;51.140;6.290;2023-05-27T05:43:01;38.97;;;35.83;;
25231;SDS011;13176;51.140;6.290;2023-05-27T05:45:27;35.90;;;33.05;;
25231;SDS011;13176;51.140;6.290;2023-05-27T05:47:54;31.77;;;29.27;;
25231;SDS011;13176;51.140;6.290;2023-05-27T05:50:20;33.05;;;30.15;;
25231;SDS011;13176;51.140;6.290;2023-05-27T05:52:47;32.47;;;29.58;;
25231;SDS011;13176;51.140;6.290;2023-05-27T05:55:13;32.42;;;29.73;;
25231;SDS011;13176;51.140;6.290;2023-05-27T05:57:40;36.95;;;33.70;;
25231;SDS011;13176;51.140;6.290;2023-05-27T06:00:07;39.10;;;35.75;;
25231;SDS011;13176;51.140;6.290;2023-05-27T06:02:34;38.78;;;35.95;;
25231;SDS011;13176;51.140;6.290;2023-05-27T06:05:00;44.33;;;40.70;;
25231;SDS011;13176;51.140;6.290;2023-05-27T06:07:27;43.83;;;40.67;;
25231;SDS011;13176;51.140;6.290;2023-05-27T06:09:53;42.50;;;38.90;;
25231;SDS011;13176;51.140;6.290;2023-05-27T06:12:20;45.22;;;42.03;;
25231;SDS011;13176;51.140;6.290;2023-05-27T06:14:46;46.42;;;42.88;;
25231;SDS011;13176;51.140;6.290;2023-05-27T06:17:13;38.60;;;35.67;;
25231;SDS011;13176;51.140;6.290;2023-05-27T06:19:39;45.80;;;42.22;;
25231;SDS011;13176;51.140;6.290;2023-05-27T06:22:06;32.70;;;29.98;;
25231;SDS011;13176;51.140;6.290;2023-05-27T06:24:33;28.33;;;25.98;;
25231;SDS011;13176;51.140;6.290;2023-05-27T06:26:59;33.13;;;30.13;;
25231;SDS011;13176;51.140;6.290;2023-05-27T06:29:27;42.45;;;39.15;;
25231;SDS011;13176;51.140;6.290;2023-05-27T06:31:53;41.42;;;37.92;;
25231;SDS011;13176;51.140;6.290;2023-05-27T06:34:21;40.55;;;37.28;;
25231;SDS011;13176;51.140;6.290;2023-05-27T06:36:47;32.75;;;29.85;;
25231;SDS011;13176;51.140;6.290;2023-05-27T06:39:15;31.13;;;28.65;;
25231;SDS011;13176;51.140;6.290;2023-05-27T06:41:42;35.17;;;32.58;;
25231;SDS011;13176;51.140;6.290;2023-05-27T06:44:08;39.90;;;36.45;;
25231;SDS011;13176;51.140;6.290;2023-05-27T06:46:35;37.97;;;34.95;;
25231;SDS011;13176;51.140;6.290;2023-05-27T06:49:01;38.72;;;35.92;;
25231;SDS011;13176;51.140;6.290;2023-05-27T06:51:28;35.08;;;32.17;;
25231;SDS011;13176;51.140;6.290;2023-05-27T06:53:54;30.55;;;27.70;;
25231;SDS011;13176;51.140;6.290;2023-05-27T06:56:21;34.00;;;31.10;;
25231;SDS011;13176;51.140;6.290;2023-05-27T06:58:47;28.45;;;25.88;;
25231;SDS011;13176;51.140;6.290;2023-05-27T07:01:14;35.95;;;33.40;;
25231;SDS011;13176;51.140;6.290;2023-05-27T07:03:41;43.70;;;40.40;;
25231;SDS011;13176;51.140;6.290;2023-05-27T07:06:07;40.95;;;37.92;;
25231;SDS011;13176;51.140;6.290;2023-05-27T07:08:34;28.60;;;25.88;;
25231;SDS011;13176;51.140;6.290;2023-05-27T07:11:00;32.47;;;29.75;;
25231;SDS011;13176;51.140;6.290;2023-05-27T07:13:27;29.60;;;26.85;;
25231;SDS011;13176;51.140;6.290;2023-05-27T07:15:53;31.38;;;28.55;;
25231;SDS011;13176;51.140;6.290;2023-05-27T07:18:20;28.80;;;26.13;;
25231;SDS011;13176;51.140;6.290;2023-05-27T07:20:46;20.52;;;17.05;;
25231;SDS011;13176;51.140;6.290;2023-05-27T07:23:13;20.80;;;18.88;;
25231;SDS011;13176;51.140;6.290;2023-05-27T07:25:40;24.13;;;20.63;;
25231;SDS011;13176;51.140;6.290;2023-05-27T07:28:06;22.23;;;19.45;;
25231;SDS011;13176;51.140;6.290;2023-05-27T07:30:32;25.58;;;23.17;;
25231;SDS011;13176;51.140;6.290;2023-05-27T07:33:00;23.35;;;21.08;;
25231;SDS011;13176;51.140;6.290;2023-05-27T07:35:27;29.10;;;26.48;;
25231;SDS011;13176;51.140;6.290;2023-05-27T07:37:53;40.03;;;37.15;;
25231;SDS011;13176;51.140;6.290;2023-05-27T07:40:20;25.55;;;23.38;;
25231;SDS011;13176;51.140;6.290;2023-05-27T07:42:46;25.33;;;22.75;;
25231;SDS011;13176;51.140;6.290;2023-05-27T07:45:13;28.85;;;25.95;;
25231;SDS011;13176;51.140;6.290;2023-05-27T07:47:39;38.55;;;35.65;;
25231;SDS011;13176;51.140;6.290;2023-05-27T07:50:06;24.70;;;22.30;;
25231;SDS011;13176;51.140;6.290;2023-05-27T07:52:33;35.05;;;32.10;;
25231;SDS011;13176;51.140;6.290;2023-05-27T07:55:00;22.90;;;20.88;;
25231;SDS011;13176;51.140;6.290;2023-05-27T07:57:26;26.70;;;22.70;;
25231;SDS011;13176;51.140;6.290;2023-05-27T07:59:53;27.08;;;24.80;;
25231;SDS011;13176;51.140;6.290;2023-05-27T08:02:19;24.60;;;22.35;;
25231;SDS011;13176;51.140;6.290;2023-05-27T08:04:48;28.67;;;26.13;;
25231;SDS011;13176;51.140;6.290;2023-05-27T08:07:14;42.50;;;39.53;;
25231;SDS011;13176;51.140;6.290;2023-05-27T08:09:41;31.20;;;28.67;;
25231;SDS011;13176;51.140;6.290;2023-05-27T08:12:07;52.15;;;48.55;;
25231;SDS011;13176;51.140;6.290;2023-05-27T08:14:34;34.38;;;31.30;;
25231;SDS011;13176;51.140;6.290;2023-05-27T08:17:01;48.90;;;45.15;;
25231;SDS011;13176;51.140;6.290;2023-05-27T08:19:28;28.98;;;26.42;;
25231;SDS011;13176;51.140;6.290;2023-05-27T08:21:54;49.50;;;45.95;;
25231;SDS011;13176;51.140;6.290;2023-05-27T08:24:22;30.95;;;28.45;;
25231;SDS011;13176;51.140;6.290;2023-05-27T08:26:49;31.58;;;28.98;;
25231;SDS011;13176;51.140;6.290;2023-05-27T08:29:16;53.55;;;49.78;;
25231;SDS011;13176;51.140;6.290;2023-05-27T08:31:43;23.38;;;21.40;;
25231;SDS011;13176;51.140;6.290;2023-05-27T08:34:10;55.72;;;51.67;;
25231;SDS011;13176;51.140;6.290;2023-05-27T08:36:36;62.95;;;58.35;;
25231;SDS011;13176;51.140;6.290;2023-05-27T08:39:03;40.47;;;37.30;;
25231;SDS011;13176;51.140;6.290;2023-05-27T08:41:30;62.90;;;58.15;;
25231;SDS011;13176;51.140;6.290;2023-05-27T08:43:57;55.83;;;51.65;;
25231;SDS011;13176;51.140;6.290;2023-05-27T08:46:44;67.07;;;62.67;;
25231;SDS011;13176;51.140;6.290;2023-05-27T08:49:14;51.38;;;47.35;;
25231;SDS011;13176;51.140;6.290;2023-05-27T08:51:41;38.70;;;35.70;;
25231;SDS011;13176;51.140;6.290;2023-05-27T08:54:08;37.95;;;34.97;;
25231;SDS011;13176;51.140;6.290;2023-05-27T08:56:35;37.13;;;34.13;;
25231;SDS011;13176;51.140;6.290;2023-05-27T08:59:03;18.30;;;14.70;;
25231;SDS011;13176;51.140;6.290;2023-05-27T09:01:30;14.45;;;12.88;;
25231;SDS011;13176;51.140;6.290;2023-05-27T09:03:58;14.68;;;12.25;;
25231;SDS011;13176;51.140;6.290;2023-05-27T09:06:25;17.90;;;14.70;;
25231;SDS011;13176;51.140;6.290;2023-05-27T09:08:51;14.48;;;12.27;;
25231;SDS011;13176;51.140;6.290;2023-05-27T09:11:19;16.92;;;11.40;;
25231;SDS011;13176;51.140;6.290;2023-05-27T09:13:47;94.25;;;88.28;;
25231;SDS011;13176;51.140;6.290;2023-05-27T09:16:14;14.50;;;12.52;;
25231;SDS011;13176;51.140;6.290;2023-05-27T09:18:47;33.72;;;30.83;;
25231;SDS011;13176;51.140;6.290;2023-05-27T09:21:13;83.25;;;77.65;;
25231;SDS011;13176;51.140;6.290;2023-05-27T09:23:40;14.13;;;12.10;;
25231;SDS011;13176;51.140;6.290;2023-05-27T09:26:07;15.80;;;11.60;;
25231;SDS011;13176;51.140;6.290;2023-05-27T09:28:39;14.32;;;10.23;;
25231;SDS011;13176;51.140;6.290;2023-05-27T09:31:07;26.80;;;24.40;;
25231;SDS011;13176;51.140;6.290;2023-05-27T09:33:35;18.80;;;17.08;;
25231;SDS011;13176;51.140;6.290;2023-05-27T09:36:05;14.40;;;11.57;;
25231;SDS011;13176;51.140;6.290;2023-05-27T09:38:35;22.08;;;19.85;;
25231;SDS011;13176;51.140;6.290;2023-05-27T09:41:02;65.13;;;60.35;;
25231;SDS011;13176;51.140;6.290;2023-05-27T09:43:29;17.67;;;13.10;;
25231;SDS011;13176;51.140;6.290;2023-05-27T09:46:00;17.58;;;15.68;;
25231;SDS011;13176;51.140;6.290;2023-05-27T09:48:29;16.08;;;13.63;;
25231;SDS011;13176;51.140;6.290;2023-05-27T09:50:58;18.85;;;16.92;;
25231;SDS011;13176;51.140;6.290;2023-05-27T09:53:26;15.80;;;11.63;;
25231;SDS011;13176;51.140;6.290;2023-05-27T09:55:53;20.92;;;17.25;;
25231;SDS011;13176;51.140;6.290;2023-05-27T09:58:22;15.73;;;14.05;;
25231;SDS011;13176;51.140;6.290;2023-05-27T10:00:49;30.58;;;27.45;;
25231;SDS011;13176;51.140;6.290;2023-05-27T10:03:17;18.67;;;14.10;;
25231;SDS011;13176;51.140;6.290;2023-05-27T10:05:48;22.27;;;20.13;;
25231;SDS011;13176;51.140;6.290;2023-05-27T10:08:15;16.48;;;14.77;;
25231;SDS011;13176;51.140;6.290;2023-05-27T10:10:51;19.13;;;16.70;;
25231;SDS011;13176;51.140;6.290;2023-05-27T10:13:18;24.90;;;20.52;;
25231;SDS011;13176;51.140;6.290;2023-05-27T10:15:47;16.88;;;15.10;;
25231;SDS011;13176;51.140;6.290;2023-05-27T10:18:26;21.75;;;17.35;;
25231;SDS011;13176;51.140;6.290;2023-05-27T10:20:56;19.52;;;17.52;;
25231;SDS011;13176;51.140;6.290;2023-05-27T10:23:27;18.60;;;17.00;;
25231;SDS011;13176;51.140;6.290;2023-05-27T10:26:05;16.67;;;14.23;;
25231;SDS011;13176;51.140;6.290;2023-05-27T10:28:37;13.43;;;10.43;;
25231;SDS011;13176;51.140;6.290;2023-05-27T10:31:08;20.00;;;17.98;;
25231;SDS011;13176;51.140;6.290;2023-05-27T10:33:42;17.58;;;15.98;;
25231;SDS011;13176;51.140;6.290;2023-05-27T10:36:11;21.08;;;18.70;;
25231;SDS011;13176;51.140;6.290;2023-05-27T10:38:40;26.35;;;23.85;;
25231;SDS011;13176;51.140;6.290;2023-05-27T10:41:09;24.25;;;22.10;;
25231;SDS011;13176;51.140;6.290;2023-05-27T10:43:35;25.98;;;23.75;;
25231;SDS011;13176;51.140;6.290;2023-05-27T10:48:30;13.10;;;11.82;;
25231;SDS011;13176;51.140;6.290;2023-05-27T10:50:57;11.80;;;9.77;;
25231;SDS011;13176;51.140;6.290;2023-05-27T10:53:28;11.90;;;9.38;;
25231;SDS011;13176;51.140;6.290;2023-05-27T10:55:57;12.90;;;11.48;;
25231;SDS011;13176;51.140;6.290;2023-05-27T10:58:24;14.00;;;12.27;;
25231;SDS011;13176;51.140;6.290;2023-05-27T11:00:52;18.70;;;17.23;;
25231;SDS011;13176;51.140;6.290;2023-05-27T11:03:20;16.85;;;13.77;;
25231;SDS011;13176;51.140;6.290;2023-05-27T11:05:57;16.00;;;14.55;;
25231;SDS011;13176;51.140;6.290;2023-05-27T11:08:34;15.90;;;14.40;;
25231;SDS011;13176;51.140;6.290;2023-05-27T11:11:01;13.95;;;12.23;;
25231;SDS011;13176;51.140;6.290;2023-05-27T11:13:31;15.23;;;9.70;;
25231;SDS011;13176;51.140;6.290;2023-05-27T11:15:59;11.63;;;9.90;;
25231;SDS011;13176;51.140;6.290;2023-05-27T11:18:37;11.15;;;9.23;;
25231;SDS011;13176;51.140;6.290;2023-05-27T11:21:04;17.25;;;9.18;;
25231;SDS011;13176;51.140;6.290;2023-05-27T11:23:38;16.58;;;9.95;;
25231;SDS011;13176;51.140;6.290;2023-05-27T11:26:25;15.35;;;10.52;;
25231;SDS011;13176;51.140;6.290;2023-05-27T11:28:58;16.05;;;9.82;;
25231;SDS011;13176;51.140;6.290;2023-05-27T11:31:28;11.93;;;9.35;;
25231;SDS011;13176;51.140;6.290;2023-05-27T11:33:56;11.75;;;8.68;;
25231;SDS011;13176;51.140;6.290;2023-05-27T11:36:27;12.77;;;9.13;;
25231;SDS011;13176;51.140;6.290;2023-05-27T11:38:57;16.45;;;10.52;;
25231;SDS011;13176;51.140;6.290;2023-05-27T11:41:25;11.80;;;8.90;;
25231;SDS011;13176;51.140;6.290;2023-05-27T11:43:56;14.30;;;9.82;;
25231;SDS011;13176;51.140;6.290;2023-05-27T11:46:36;15.88;;;9.80;;
25231;SDS011;13176;51.140;6.290;2023-05-27T11:49:05;13.18;;;10.70;;
25231;SDS011;13176;51.140;6.290;2023-05-27T11:51:34;28.20;;;25.58;;
25231;SDS011;13176;51.140;6.290;2023-05-27T11:54:03;16.95;;;11.70;;
25231;SDS011;13176;51.140;6.290;2023-05-27T11:56:29;13.15;;;9.38;;
25231;SDS011;13176;51.140;6.290;2023-05-27T11:58:56;13.35;;;9.10;;
25231;SDS011;13176;51.140;6.290;2023-05-27T12:01:23;46.15;;;42.78;;
25231;SDS011;13176;51.140;6.290;2023-05-27T12:03:51;18.65;;;9.18;;
25231;SDS011;13176;51.140;6.290;2023-05-27T12:06:18;10.85;;;8.98;;
25231;SDS011;13176;51.140;6.290;2023-05-27T12:08:44;13.27;;;10.80;;
25231;SDS011;13176;51.140;6.290;2023-05-27T12:11:11;11.93;;;8.52;;
25231;SDS011;13176;51.140;6.290;2023-05-27T12:13:37;11.25;;;8.10;;
25231;SDS011;13176;51.140;6.290;2023-05-27T12:16:04;15.07;;;9.45;;
25231;SDS011;13176;51.140;6.290;2023-05-27T12:18:31;11.30;;;9.82;;
25231;SDS011;13176;51.140;6.290;2023-05-27T12:20:57;12.82;;;8.55;;
25231;SDS011;13176;51.140;6.290;2023-05-27T12:23:24;14.50;;;8.35;;
25231;SDS011;13176;51.140;6.290;2023-05-27T12:25:51;12.43;;;8.43;;
25231;SDS011;13176;51.140;6.290;2023-05-27T12:28:17;10.30;;;8.23;;
25231;SDS011;13176;51.140;6.290;2023-05-27T12:30:44;10.05;;;8.23;;
25231;SDS011;13176;51.140;6.290;2023-05-27T12:33:12;10.20;;;7.53;;
25231;SDS011;13176;51.140;6.290;2023-05-27T12:35:39;8.77;;;7.25;;
25231;SDS011;13176;51.140;6.290;2023-05-27T12:38:07;11.88;;;7.60;;
25231;SDS011;13176;51.140;6.290;2023-05-27T12:40:33;14.20;;;8.35;;
25231;SDS011;13176;51.140;6.290;2023-05-27T12:43:00;11.18;;;8.57;;
25231;SDS011;13176;51.140;6.290;2023-05-27T12:45:29;14.30;;;8.45;;
25231;SDS011;13176;51.140;6.290;2023-05-27T12:47:57;14.65;;;8.55;;
25231;SDS011;13176;51.140;6.290;2023-05-27T12:50:24;11.07;;;8.10;;
25231;SDS011;13176;51.140;6.290;2023-05-27T12:52:52;12.13;;;8.40;;
25231;SDS011;13176;51.140;6.290;2023-05-27T12:55:20;10.13;;;7.82;;
25231;SDS011;13176;51.140;6.290;2023-05-27T12:57:51;12.98;;;9.93;;
25231;SDS011;13176;51.140;6.290;2023-05-27T13:00:20;10.27;;;8.77;;
25231;SDS011;13176;51.140;6.290;2023-05-27T13:02:51;8.25;;;7.35;;
25231;SDS011;13176;51.140;6.290;2023-05-27T13:05:19;8.25;;;7.40;;
25231;SDS011;13176;51.140;6.290;2023-05-27T13:07:52;11.23;;;8.25;;
25231;SDS011;13176;51.140;6.290;2023-05-27T13:10:21;11.00;;;8.15;;
25231;SDS011;13176;51.140;6.290;2023-05-27T13:12:48;9.43;;;8.45;;
25231;SDS011;13176;51.140;6.290;2023-05-27T13:15:15;12.82;;;8.77;;
25231;SDS011;13176;51.140;6.290;2023-05-27T13:17:45;10.05;;;8.13;;
25231;SDS011;13176;51.140;6.290;2023-05-27T13:20:15;14.82;;;7.78;;
25231;SDS011;13176;51.140;6.290;2023-05-27T13:22:42;13.20;;;8.13;;
25231;SDS011;13176;51.140;6.290;2023-05-27T13:25:10;10.30;;;8.25;;
25231;SDS011;13176;51.140;6.290;2023-05-27T13:27:41;9.60;;;7.72;;
25231;SDS011;13176;51.140;6.290;2023-05-27T13:30:08;10.45;;;7.85;;
25231;SDS011;13176;51.140;6.290;2023-05-27T13:32:35;10.48;;;8.07;;
25231;SDS011;13176;51.140;6.290;2023-05-27T13:35:02;9.77;;;8.02;;
25231;SDS011;13176;51.140;6.290;2023-05-27T13:37:29;13.05;;;9.05;;
25231;SDS011;13176;51.140;6.290;2023-05-27T13:39:56;18.70;;;9.43;;
25231;SDS011;13176;51.140;6.290;2023-05-27T13:42:23;29.27;;;12.98;;
25231;SDS011;13176;51.140;6.290;2023-05-27T13:44:50;23.23;;;10.77;;
25231;SDS011;13176;51.140;6.290;2023-05-27T13:47:17;10.45;;;8.20;;
25231;SDS011;13176;51.140;6.290;2023-05-27T13:49:43;16.92;;;12.43;;
25231;SDS011;13176;51.140;6.290;2023-05-27T13:52:09;18.35;;;11.15;;
25231;SDS011;13176;51.140;6.290;2023-05-27T13:54:37;21.45;;;14.30;;
25231;SDS011;13176;51.140;6.290;2023-05-27T13:57:03;11.75;;;8.10;;
25231;SDS011;13176;51.140;6.290;2023-05-27T13:59:30;16.60;;;10.38;;
25231;SDS011;13176;51.140;6.290;2023-05-27T14:01:57;10.45;;;9.45;;
25231;SDS011;13176;51.140;6.290;2023-05-27T14:04:25;9.02;;;7.82;;
25231;SDS011;13176;51.140;6.290;2023-05-27T14:06:53;12.88;;;7.63;;
25231;SDS011;13176;51.140;6.290;2023-05-27T14:09:20;7.88;;;7.07;;
25231;SDS011;13176;51.140;6.290;2023-05-27T14:11:46;12.40;;;10.93;;
25231;SDS011;13176;51.140;6.290;2023-05-27T14:14:12;11.57;;;8.27;;
25231;SDS011;13176;51.140;6.290;2023-05-27T14:16:39;15.45;;;9.57;;
25231;SDS011;13176;51.140;6.290;2023-05-27T14:19:05;14.85;;;8.05;;
25231;SDS011;13176;51.140;6.290;2023-05-27T14:21:32;12.05;;;9.63;;
25231;SDS011;13176;51.140;6.290;2023-05-27T14:23:59;11.02;;;8.43;;
25231;SDS011;13176;51.140;6.290;2023-05-27T14:26:26;10.75;;;8.90;;
25231;SDS011;13176;51.140;6.290;2023-05-27T14:28:52;10.48;;;8.52;;
25231;SDS011;13176;51.140;6.290;2023-05-27T14:31:19;10.10;;;8.85;;
25231;SDS011;13176;51.140;6.290;2023-05-27T14:33:45;68.55;;;12.73;;